Date,TemperatureHighF,TemperatureAvgF,TemperatureLowF,DewpointHighF,DewpointAvgF,DewpointLowF,HumidityHigh,HumidityAvg,HumidityLow,PressureMaxIn,PressureMinIn,WindSpeedMaxMPH,WindSpeedAvgMPH,GustSpeedMaxMPH,PrecipitationSumIn
2013-4-16,-200.0,0.0,200.0,-99.9,-99.9,-99.9,37,37,37,30.17,30.17,0,0,0,0.00
2013-4-17,76.7,27.5,73.5,49.6,-46.5,-99.9,39,36,31,30.26,30.16,0,0,0,0.04
2013-4-18,78.1,73.8,71.3,51.3,46.7,44.3,46,38,34,30.29,30.06,0,0,0,0.00
2013-4-19,75.0,73.4,71.8,51.0,47.8,45.0,43,41,38,30.06,29.66,0,0,0,0.00
2013-4-20,73.1,71.7,70.8,49.0,46.7,44.0,42,41,38,30.28,29.69,0,0,0,0.00
2013-4-21,70.7,67.9,66.1,44.0,39.5,38.0,38,35,34,30.59,30.28,0,0,0,0.00
2013-4-22,72.7,69.4,64.6,42.0,39.4,35.0,37,34,31,30.59,30.41,0,0,0,0.00
2013-4-23,72.5,36.7,45.8,43.0,-21.0,-99.9,88,25,29,30.41,30.11,9,-439,11,0.00
2013-4-24,71.8,34.7,41.6,53.0,-12.6,-99.9,94,41,50,30.11,29.84,14,-412,18,0.00
2013-4-25,64.8,53.6,36.8,54.0,33.1,22.0,89,50,20,30.27,29.88,17,4,21,0.00
2013-4-26,66.3,49.4,30.3,42.4,32.7,28.0,96,61,24,30.39,30.27,11,2,18,0.00
2013-4-27,69.6,50.3,29.6,40.0,31.4,-99.9,97,58,19,30.42,30.30,10,-8,17,0.00
2013-4-28,70.1,53.5,32.7,47.0,35.4,26.0,98,59,22,30.31,30.20,12,3,17,0.00
2013-4-29,57.0,54.3,51.3,55.0,52.4,44.0,97,93,75,30.21,30.11,10,4,14,0.65
2013-4-30,65.7,57.0,44.1,53.0,45.8,28.0,97,70,28,30.29,30.14,16,6,22,0.00
2013-5-1,67.0,53.0,40.1,45.0,40.6,31.0,92,67,29,30.44,30.29,17,5,23,0.00
2013-5-2,68.7,52.9,34.7,47.0,41.0,34.0,98,69,35,30.43,30.32,13,3,19,0.00
2013-5-3,60.5,51.2,37.0,45.0,38.9,-99.9,98,68,40,30.41,30.33,15,-10,23,0.00
2013-5-4,67.6,52.4,39.9,47.0,42.0,39.0,98,72,38,30.34,30.22,14,4,20,0.00
2013-5-5,59.5,49.1,40.2,43.0,40.7,39.0,95,75,51,30.26,30.20,13,4,21,0.00
2013-5-6,67.6,53.3,38.5,55.0,49.0,38.0,98,86,63,30.21,30.11,11,4,16,0.00
2013-5-7,67.4,57.5,50.6,60.0,53.8,-99.9,99,90,76,30.12,30.01,12,-6,16,0.03
2013-5-8,74.3,63.5,56.2,64.0,56.2,51.8,98,79,47,30.03,29.93,11,4,15,0.15
2013-5-9,72.7,60.0,55.4,60.0,55.6,53.0,98,87,52,29.97,29.90,12,1,15,0.04
2013-5-10,84.5,67.5,50.5,62.0,54.9,48.0,99,70,29,30.00,29.87,10,3,15,0.00
2013-5-11,77.0,66.7,61.6,68.0,62.9,58.0,97,88,70,29.95,29.70,13,4,21,1.11
2013-5-12,66.8,59.3,41.7,59.0,44.9,28.0,89,63,26,29.97,29.68,16,4,23,0.19
2013-5-13,57.8,47.4,32.1,41.0,31.6,24.0,89,59,30,30.11,29.97,15,3,21,0.00
2013-5-14,61.1,46.9,29.3,42.0,31.4,26.0,90,61,28,30.16,30.05,9,2,16,0.00
2013-5-15,76.6,61.8,47.9,60.0,51.6,43.0,87,71,45,30.09,29.70,9,3,16,0.00
2013-5-16,82.7,70.3,55.4,63.0,57.8,51.0,87,67,41,29.83,29.70,10,2,19,0.00
2013-5-17,76.8,64.9,48.9,61.0,47.3,41.0,87,58,28,30.18,29.83,12,2,15,0.00
2013-5-18,66.3,59.2,51.6,56.0,52.8,48.0,87,79,59,30.27,30.18,11,3,13,0.10
2013-5-19,61.9,59.9,56.8,58.0,55.7,53.0,89,86,84,30.25,30.13,10,3,14,0.23
2013-5-20,81.8,70.7,61.4,70.0,64.6,59.0,91,82,61,30.14,29.97,9,3,14,0.00
2013-5-21,83.8,72.3,62.0,70.0,65.1,58.0,91,79,58,30.00,29.86,11,3,14,0.00
2013-5-22,84.4,73.8,64.3,73.0,67.5,59.0,90,81,66,29.92,29.84,11,4,16,0.00
2013-5-23,81.1,73.1,66.4,70.0,67.0,62.0,88,81,67,29.91,29.75,19,8,23,0.00
2013-5-24,67.5,57.0,45.3,64.0,52.6,40.0,90,85,73,30.00,29.70,13,4,24,0.40
2013-5-25,61.6,52.6,44.1,43.0,38.8,33.0,89,62,35,30.06,29.96,18,6,26,0.01
2013-5-26,70.2,56.7,42.1,45.0,37.3,34.0,89,52,27,30.20,30.04,14,4,21,0.00
2013-5-27,73.7,57.2,34.2,50.0,39.8,31.0,90,59,25,30.25,30.15,12,2,15,0.00
2013-5-28,64.9,58.6,48.3,60.0,54.6,45.0,88,86,80,30.20,30.09,7,1,10,0.16
2013-5-29,89.3,74.7,57.4,70.0,63.7,53.0,91,71,41,30.10,30.04,12,4,16,0.00
2013-5-30,92.2,77.0,67.5,69.0,61.4,-99.9,87,65,39,30.15,30.07,9,-28,15,0.00
2013-5-31,89.6,77.8,63.7,70.0,64.9,59.0,87,67,39,30.14,30.02,13,3,18,0.00
2013-6-1,90.1,77.7,62.6,71.0,66.6,58.0,91,71,48,30.04,29.92,15,5,19,0.00
2013-6-2,88.6,78.9,69.0,71.0,68.5,64.0,86,72,54,29.93,29.81,17,8,24,0.19
2013-6-3,79.1,70.5,66.3,71.0,64.5,-99.9,87,83,75,29.88,29.78,9,-8,16,0.95
2013-6-4,75.0,65.6,53.3,62.0,51.2,46.0,89,63,36,30.09,29.86,10,3,14,0.00
2013-6-5,80.1,62.7,42.7,56.0,48.3,39.0,89,64,30,30.18,30.08,8,2,13,0.00
2013-6-6,74.3,63.6,49.3,63.0,55.8,45.0,91,77,50,30.11,29.95,11,4,18,0.03
2013-6-7,72.9,67.9,62.8,69.0,63.3,58.0,87,85,84,29.94,29.51,12,4,15,1.82
2013-6-8,77.6,68.8,60.8,70.0,63.8,57.0,89,84,71,30.06,29.51,11,3,16,0.15
2013-6-9,82.2,70.7,58.3,68.0,61.3,55.0,91,74,49,30.18,30.06,6,2,13,0.00
2013-6-10,75.4,69.1,61.4,72.0,65.2,57.0,91,87,85,30.15,29.80,8,3,15,0.37
2013-6-11,82.8,74.9,68.7,69.0,66.7,63.0,89,76,58,29.79,29.68,14,5,18,0.01
2013-6-12,84.2,74.5,65.8,65.0,62.3,60.0,86,67,45,29.83,29.76,12,4,20,0.00
2013-6-13,84.8,70.2,64.1,74.0,64.6,58.0,89,82,59,29.83,29.41,12,4,25,1.33
2013-6-14,74.2,60.6,54.3,61.0,55.4,51.0,90,84,57,29.91,29.45,10,3,19,0.67
2013-6-15,80.7,67.7,51.3,64.0,57.2,48.0,90,72,41,30.02,29.91,13,2,14,0.01
2013-6-16,85.3,69.7,53.4,70.0,61.9,50.0,92,78,48,30.00,29.83,12,3,20,0.35
2013-6-17,85.4,72.7,62.2,72.0,65.7,59.0,92,80,57,29.93,29.85,10,2,14,0.05
2013-6-18,79.9,67.1,62.0,75.0,63.6,59.0,90,88,84,29.89,29.78,14,2,24,1.88
2013-6-19,76.5,66.9,53.2,62.0,58.1,50.0,91,75,48,30.15,29.84,10,3,14,0.00
2013-6-20,79.9,64.5,49.0,61.0,53.4,46.0,93,70,46,30.27,30.16,10,2,13,0.00
2013-6-21,80.8,65.6,47.6,61.0,54.0,45.0,91,70,40,30.30,30.25,8,2,15,0.00
2013-6-22,84.8,67.5,50.8,66.0,57.9,48.0,92,74,48,30.26,30.14,9,2,12,0.00
2013-6-23,85.7,71.9,55.3,75.0,65.7,52.0,90,81,61,30.20,30.05,12,3,17,0.03
2013-6-24,92.2,78.0,67.5,76.0,70.3,62.0,91,78,50,30.09,29.99,8,2,19,0.00
2013-6-25,91.6,76.2,62.9,76.0,68.0,59.0,91,78,48,30.00,29.85,10,1,22,0.16
2013-6-26,90.9,79.3,66.2,77.0,68.2,-99.9,89,72,51,29.88,29.77,10,-8,17,0.02
2013-6-27,88.4,77.4,68.9,75.0,70.9,65.0,90,81,60,29.80,29.57,14,4,19,1.01
2013-6-28,87.7,76.9,68.9,74.0,69.8,66.0,91,79,57,29.60,29.48,9,4,16,0.17
2013-6-29,86.1,71.2,63.8,75.0,60.4,-99.9,94,78,62,29.70,29.49,10,-50,13,0.04
2013-6-30,82.5,75.2,68.9,77.0,71.6,66.0,91,88,81,29.88,29.70,8,2,11,0.09
2013-7-1,82.8,74.9,71.8,76.0,71.5,69.0,90,89,77,30.02,29.87,11,4,15,0.51
2013-7-2,85.2,76.3,71.9,77.0,72.3,69.0,91,87,76,30.18,30.02,11,4,15,0.07
2013-7-3,88.1,78.3,68.3,77.0,72.8,65.0,92,84,68,30.24,30.16,12,4,17,0.01
2013-7-4,88.5,79.4,70.3,77.0,72.3,68.0,92,80,61,30.25,30.18,10,3,16,0.00
2013-7-5,90.5,64.1,68.1,76.0,36.1,-99.9,94,60,57,30.22,30.11,16,-210,16,0.00
2013-7-6,93.3,81.4,70.3,78.0,72.9,67.0,91,77,48,30.16,30.04,12,2,13,0.00
2013-7-7,92.9,82.1,68.6,76.0,72.8,66.0,92,75,54,30.09,29.95,8,2,13,0.00
2013-7-8,87.2,75.2,67.9,74.0,69.5,65.0,91,83,60,30.07,30.00,8,2,15,0.38
2013-7-9,87.5,77.3,66.7,78.0,72.3,64.0,94,85,63,30.07,29.99,13,2,20,0.47
2013-7-10,87.4,79.8,71.0,78.0,74.1,68.0,91,83,64,30.02,29.83,13,4,18,0.00
2013-7-11,84.7,77.2,72.5,75.0,72.5,70.0,91,85,63,29.89,29.82,6,2,11,0.20
2013-7-12,76.1,72.0,69.4,71.0,68.9,67.0,92,90,84,30.02,29.89,12,4,20,0.67
2013-7-13,87.3,78.0,70.9,78.0,73.2,68.0,92,85,69,30.28,30.02,9,2,12,0.00
2013-7-14,89.2,79.8,70.1,77.0,72.9,67.0,95,80,55,30.33,30.25,6,1,9,0.00
2013-7-15,93.0,82.0,71.2,77.0,73.3,68.0,92,77,53,30.27,30.13,6,1,9,0.00
2013-7-16,93.7,82.5,70.7,76.0,71.2,66.0,91,71,41,30.18,30.11,10,1,13,0.00
2013-7-17,95.9,81.0,67.0,78.0,70.7,64.0,92,74,43,30.17,30.07,6,0,9,0.00
2013-7-18,96.8,84.0,69.0,80.0,74.6,66.0,94,75,50,30.08,29.95,5,0,7,0.00
2013-7-19,95.8,86.2,75.5,80.0,76.6,73.0,91,75,54,29.99,29.83,9,2,13,0.00
2013-7-20,91.7,83.4,71.8,79.0,76.4,69.0,91,80,60,29.87,29.75,12,3,15,0.22
2013-7-21,91.8,77.9,70.7,77.0,71.2,68.0,91,81,47,29.93,29.84,11,1,18,1.49
2013-7-22,88.4,77.0,70.3,78.0,72.9,68.0,94,87,68,29.91,29.77,8,2,12,0.00
2013-7-23,86.2,77.1,69.8,79.0,73.4,67.0,92,88,68,29.76,29.59,8,2,12,1.00
2013-7-24,85.7,75.4,66.6,73.0,68.3,60.0,95,80,59,29.89,29.64,8,2,14,0.00
2013-7-25,69.6,65.8,63.0,62.0,59.8,56.0,91,81,69,30.02,29.88,11,4,17,0.00
2013-7-26,83.5,71.5,61.6,68.0,62.7,59.0,92,76,49,30.05,29.97,6,2,11,0.00
2013-7-27,84.6,71.7,59.1,70.0,63.2,57.0,94,77,47,30.05,29.94,9,2,11,0.00
2013-7-28,81.9,72.4,62.0,75.0,68.3,60.0,95,87,74,29.97,29.89,13,3,17,0.70
2013-7-29,83.9,71.1,58.5,71.0,64.0,56.0,94,80,42,30.11,29.94,8,1,12,0.00
2013-7-30,81.4,68.0,53.0,64.0,58.1,51.0,94,74,44,30.17,30.11,9,1,14,0.00
2013-7-31,85.7,69.6,54.0,68.0,61.2,52.0,94,77,46,30.15,30.03,7,1,11,0.00
2013-8-1,75.5,68.2,62.2,71.0,65.6,60.0,92,91,85,30.03,29.82,8,2,12,0.50
2013-8-2,84.7,74.6,66.7,72.0,66.6,62.0,95,78,47,29.93,29.79,11,2,14,0.00
2013-8-3,79.7,69.6,62.4,70.0,65.3,60.0,96,87,65,29.93,29.88,8,2,14,0.01
2013-8-4,80.3,68.7,56.8,66.0,58.9,55.0,96,74,46,29.97,29.85,11,2,15,0.00
2013-8-5,71.1,57.0,51.3,58.0,53.5,49.0,93,88,62,30.06,29.97,7,1,10,0.00
2013-8-6,72.4,72.2,72.1,67.0,67.0,67.0,83,82,82,30.06,30.06,1,0,2,0.00
2013-8-8,86.2,75.7,74.6,76.0,58.0,-99.9,91,73,68,30.03,29.99,10,-54,13,0.00
2013-8-9,88.4,79.2,73.7,78.0,74.5,71.0,92,86,68,30.00,29.82,9,3,20,0.25
2013-8-10,81.8,75.8,65.2,73.0,68.5,63.0,92,79,54,30.04,29.87,6,1,8,0.00
2013-8-11,85.1,71.3,60.7,71.0,64.7,59.0,95,81,54,30.11,30.01,10,2,12,0.00
2013-8-12,85.7,72.8,61.4,76.0,68.3,60.0,96,86,58,30.03,29.91,9,1,11,0.13
2013-8-13,81.1,73.1,67.6,75.0,69.8,66.0,96,90,69,29.91,29.67,11,2,18,1.43
2013-8-14,74.5,42.9,52.0,69.0,1.1,-99.9,93,47,49,30.05,29.74,13,-356,19,0.08
2013-8-15,76.9,61.3,46.0,58.0,51.8,44.0,95,75,38,30.14,30.05,6,1,11,0.00
2013-8-16,80.5,60.9,47.5,62.0,45.8,-99.9,95,69,40,30.19,30.12,8,-51,11,0.00
2013-8-17,80.0,59.4,49.3,63.0,45.9,-99.9,95,74,45,30.25,30.19,9,-61,11,0.00
2013-8-18,76.2,67.0,58.2,67.0,61.3,56.0,93,83,59,30.23,30.11,9,2,13,0.00
2013-8-19,77.2,67.2,59.0,68.0,60.7,-99.9,93,82,64,30.14,30.05,7,-9,13,0.00
2013-8-20,87.5,72.4,57.6,71.0,64.6,56.0,96,79,50,30.14,30.06,5,1,7,0.00
2013-8-21,88.1,73.7,60.3,74.0,67.2,58.0,96,82,59,30.18,30.06,5,0,9,0.00
2013-8-22,86.3,74.1,68.5,75.0,69.9,66.0,93,87,65,30.07,29.90,7,2,12,0.05
2013-8-23,78.3,70.5,61.4,70.0,65.0,59.0,95,83,55,30.07,29.88,6,2,13,0.01
2013-8-24,79.9,65.9,52.2,65.0,58.3,50.0,96,79,47,30.33,30.07,8,2,12,0.00
2013-8-25,81.9,63.8,45.8,64.0,54.1,44.0,96,75,38,30.40,30.26,9,1,11,0.00
2013-8-26,85.2,69.1,52.4,68.0,61.3,51.0,96,78,48,30.27,29.95,8,2,13,0.00
2013-8-27,88.2,77.4,66.4,72.0,68.1,64.0,92,74,50,29.94,29.84,9,2,14,0.00
2013-8-28,75.2,69.4,61.7,73.0,67.2,60.0,95,92,90,29.89,29.80,4,0,7,0.65
2013-8-29,80.2,71.6,62.4,71.0,67.6,60.0,96,88,68,30.02,29.83,11,3,15,0.00
2013-8-30,80.9,71.2,61.4,73.0,66.9,60.0,96,87,71,30.02,29.88,9,2,14,0.00
2013-8-31,88.8,76.7,63.8,74.0,70.1,62.0,96,81,59,29.90,29.79,13,4,16,0.00
2013-9-1,90.0,77.8,68.7,76.0,71.9,66.0,95,83,58,29.84,29.76,9,1,13,0.00
2013-9-2,80.6,73.7,70.1,76.0,71.3,68.0,95,92,84,29.79,29.71,5,1,8,0.75
2013-9-3,84.3,73.3,60.9,75.0,67.1,59.0,96,82,52,29.89,29.71,9,2,13,0.01
2013-9-4,80.7,60.6,53.1,62.0,56.3,52.0,96,87,40,30.02,29.89,7,1,13,0.00
2013-9-5,81.0,66.9,54.4,66.0,57.8,49.0,96,74,51,30.10,29.96,8,2,14,0.00
2013-9-6,73.9,60.2,47.5,55.0,49.1,46.0,93,70,40,30.23,30.11,8,2,11,0.00
2013-9-7,78.6,60.5,40.1,59.0,49.5,39.0,95,72,36,30.13,29.92,7,1,10,0.00
2013-9-8,85.3,70.6,55.6,68.0,61.4,51.0,95,75,55,30.04,29.82,8,2,13,0.00
2013-9-9,74.7,63.8,51.2,62.0,56.3,48.0,92,77,60,30.20,30.05,9,2,14,0.00
2013-9-10,87.1,74.4,58.7,75.0,68.7,56.0,94,83,65,30.18,30.07,10,2,13,0.00
2013-9-11,91.7,78.3,67.9,79.0,71.5,66.0,95,81,57,30.13,30.00,10,2,14,0.00
2013-9-12,88.4,76.4,67.5,76.0,70.6,66.0,95,83,57,29.99,29.70,11,3,18,0.18
2013-9-13,76.9,68.5,56.8,68.0,61.8,53.0,93,81,52,29.86,29.64,9,2,15,0.14
2013-9-14,66.2,55.9,41.9,53.0,48.6,40.0,94,78,56,30.14,29.86,10,2,14,0.00
2013-9-15,74.5,55.5,35.5,56.0,46.9,34.0,96,76,42,30.22,30.09,7,2,11,0.00
2013-9-16,69.9,60.8,51.4,64.0,56.6,50.0,95,86,63,30.20,30.02,5,1,10,0.01
2013-9-17,65.5,54.2,37.4,53.0,44.2,36.0,93,71,44,30.40,30.20,12,4,16,0.00
2013-9-18,71.5,51.2,32.4,56.0,42.6,-99.9,96,77,46,30.34,30.19,7,-10,10,0.00
2013-9-19,76.4,56.6,36.7,58.0,48.1,35.0,95,77,44,30.20,30.07,5,1,10,0.00
2013-9-20,79.6,59.5,41.3,62.0,52.2,40.0,96,80,46,30.09,29.99,8,1,12,0.00
2013-9-21,80.0,64.2,44.7,68.0,57.7,43.0,97,82,43,30.00,29.68,16,4,22,0.04
2013-9-22,71.3,62.5,47.5,66.0,54.9,45.0,93,78,48,29.90,29.65,10,3,14,0.65
2013-9-23,66.8,53.1,38.2,49.0,44.3,36.0,94,75,48,30.04,29.90,13,2,17,0.00
2013-9-24,70.4,52.0,37.5,55.0,44.3,36.0,95,78,46,30.06,29.90,8,1,12,0.00
2013-9-25,74.1,54.7,37.8,56.0,47.0,37.0,96,79,40,29.94,29.86,4,1,10,0.00
2013-9-26,71.7,56.0,43.8,60.0,51.0,42.0,97,84,59,30.07,29.91,9,1,11,0.00
2013-9-27,69.3,57.3,44.8,58.0,51.9,44.0,97,83,61,30.23,30.07,6,2,11,0.00
2013-9-28,71.6,59.8,47.0,58.0,52.6,45.0,93,79,47,30.29,30.20,12,3,15,0.00
2013-9-29,71.9,57.6,45.1,59.0,50.9,43.0,95,80,50,30.20,30.06,9,2,15,0.00
2013-9-30,74.0,55.4,39.9,59.0,48.8,39.0,96,81,47,30.06,29.97,7,1,9,0.00
2013-10-1,80.3,57.7,42.2,64.0,47.3,-99.9,96,78,52,30.02,29.92,7,-40,14,0.01
2013-10-2,83.2,64.5,49.0,65.0,54.6,-99.9,96,77,50,30.02,29.93,9,-19,14,0.00
2013-10-3,81.7,66.5,51.5,68.0,59.7,50.0,96,81,55,30.10,30.01,5,1,8,0.00
2013-10-4,86.4,66.9,54.3,70.0,54.9,-99.9,96,75,47,30.06,29.97,9,-42,10,0.00
2013-10-5,84.4,59.2,58.9,71.0,41.9,-99.9,95,75,62,30.05,30.00,5,-134,10,0.00
2013-10-6,85.9,71.8,65.6,72.0,66.5,64.0,95,84,58,30.05,29.97,9,3,12,0.00
2013-10-7,80.1,66.2,58.5,73.0,59.8,-99.9,92,86,73,30.00,29.79,20,-26,25,0.36
2013-10-8,64.9,55.0,44.5,55.0,48.9,43.0,96,82,56,30.26,30.01,9,2,17,0.00
2013-10-9,62.2,56.6,51.0,54.0,50.9,47.0,92,81,70,30.30,30.20,15,5,20,0.05
2013-10-10,61.8,58.2,55.5,60.0,55.1,-99.9,93,91,92,30.20,29.95,17,-2,21,0.90
2013-10-11,63.2,62.1,61.1,61.0,60.1,59.0,94,93,93,30.00,29.90,17,8,21,1.77
2013-10-12,68.5,62.4,60.1,61.0,58.9,56.0,93,88,76,30.16,29.98,18,8,24,0.28
2013-10-13,66.1,59.5,50.8,58.0,54.3,49.0,93,84,65,30.32,30.17,19,7,24,0.00
2013-10-14,68.5,55.2,44.7,58.0,50.5,43.0,94,85,61,30.32,30.22,8,2,12,0.00
2013-10-15,71.9,47.3,39.7,55.0,22.0,-99.9,97,62,42,30.24,30.08,8,-175,11,0.01
2013-10-16,73.7,59.6,54.4,63.0,51.8,-99.9,94,84,66,30.07,29.91,5,-30,8,0.00
2013-10-17,75.7,65.6,60.8,65.0,61.6,59.0,92,87,66,29.91,29.72,10,3,11,0.01
2013-10-18,66.7,51.3,39.5,64.0,31.1,-99.9,93,64,48,30.00,29.71,13,-111,18,0.00
2013-10-19,63.3,50.9,35.3,58.0,46.1,34.0,96,85,58,30.00,29.77,6,1,10,0.02
2013-10-20,62.4,51.9,35.4,56.0,40.8,34.0,93,69,37,30.08,29.80,11,3,17,0.01
2013-10-21,68.1,47.5,29.7,49.0,38.2,28.0,95,75,34,30.15,29.99,9,2,16,0.00
2013-10-22,70.1,51.3,38.2,54.0,44.5,36.0,96,80,47,29.98,29.77,12,2,15,0.00
2013-10-23,51.7,40.9,40.4,49.0,28.2,-99.9,93,81,80,29.81,29.60,5,-103,7,0.00
2013-10-24,48.3,14.1,29.3,32.0,-49.9,-99.9,94,30,45,30.06,29.80,11,-614,14,0.00
2013-10-25,54.3,38.5,27.2,37.0,29.3,-99.9,94,76,48,30.27,30.06,11,-19,18,0.02
2013-10-26,56.2,22.9,24.3,39.0,-18.9,-99.9,94,50,44,30.26,29.92,11,-373,21,0.00
2013-10-27,-200.0,0.0,200.0,-99.9,-99.9,-99.9,0,0,100,30.14,29.90,0,-999,0,0.00
2013-10-28,65.2,32.7,37.1,46.0,-12.2,-99.9,93,42,44,30.27,30.13,8,-374,12,0.00
2013-10-29,62.7,47.2,36.3,49.0,41.5,34.0,94,82,55,30.35,30.26,9,2,10,0.00
2013-10-30,56.0,47.4,37.5,54.0,45.4,36.0,95,93,91,30.33,30.18,2,0,3,0.06
2013-10-31,71.1,59.4,46.1,63.0,55.7,44.0,97,88,70,30.20,29.82,12,3,16,0.02
2013-11-1,70.7,64.3,56.3,64.0,60.9,54.0,95,88,79,29.82,29.60,17,5,24,0.24
2013-11-2,70.1,60.0,50.9,60.0,50.6,44.0,96,74,42,29.79,29.60,5,1,11,0.01
2013-11-3,53.0,45.3,34.4,45.0,35.0,22.0,92,69,38,30.42,29.80,13,3,19,0.00
2013-11-4,48.0,37.9,29.1,32.0,26.3,21.0,80,64,46,30.61,30.43,10,3,16,0.00
2013-11-5,58.0,44.3,30.8,46.0,38.2,29.0,93,80,57,30.60,30.46,8,2,12,0.00
2013-11-6,64.4,49.1,29.1,55.0,43.9,28.0,95,84,56,30.47,30.08,11,3,14,0.00
2013-11-7,62.3,55.5,36.8,60.0,53.0,35.0,95,91,87,30.07,29.78,8,3,18,0.00
2013-11-8,50.0,40.8,28.0,39.0,29.9,26.0,93,67,44,30.26,29.97,16,3,18,0.00
2013-11-9,51.6,38.5,23.2,40.0,29.6,22.0,93,74,39,30.32,30.01,7,2,13,0.00
2013-11-10,62.8,49.7,38.9,39.0,34.4,28.0,89,59,31,30.12,29.86,19,4,29,0.00
2013-11-11,56.2,46.3,29.8,40.0,32.9,26.0,89,62,40,30.24,29.99,11,3,15,0.00
2013-11-12,49.5,38.7,27.8,41.0,27.9,16.0,92,66,46,30.31,29.95,12,4,23,0.00
2013-11-13,40.1,30.3,20.9,20.0,16.2,13.0,91,58,34,30.39,30.31,14,3,20,0.00
2013-11-14,56.6,38.1,22.7,30.0,21.9,12.0,92,60,19,30.33,30.20,14,2,24,0.00
2013-11-15,59.2,38.1,23.8,39.0,30.0,22.0,94,77,35,30.26,30.17,8,1,9,0.00
2013-11-16,50.4,44.5,32.0,48.0,42.3,30.0,93,92,89,30.33,30.23,4,0,5,0.00
2013-11-17,67.5,56.2,45.7,62.0,53.6,44.0,95,91,76,30.23,29.78,6,2,9,0.00
2013-11-18,67.3,59.3,44.3,62.0,43.9,28.0,91,62,27,29.82,29.65,18,5,23,0.00
2013-11-19,50.5,43.2,26.0,30.0,26.4,22.0,87,53,42,30.34,29.82,14,4,23,0.00
2013-11-20,46.4,32.9,23.7,25.0,21.7,15.0,91,66,30,30.56,30.34,7,2,11,0.00
2013-11-21,55.0,42.0,27.1,43.0,34.3,21.0,90,75,57,30.56,30.38,8,2,12,0.00
2013-11-22,58.3,51.4,41.9,53.0,48.3,40.0,95,89,80,30.37,29.94,13,2,14,0.00
2013-11-23,53.6,44.1,32.7,51.0,29.4,14.0,92,58,37,30.06,29.93,14,4,24,0.00
2013-11-24,32.2,25.9,14.7,15.0,3.0,0.0,67,38,27,30.44,30.05,22,6,28,0.00
2013-11-25,35.4,24.6,13.0,20.0,13.5,6.0,88,65,38,30.53,30.36,9,2,12,0.00
2013-11-26,57.7,37.6,25.3,55.0,31.9,21.0,92,81,46,30.36,29.65,14,2,23,0.00
2013-11-27,63.0,45.9,32.0,60.0,42.8,21.0,93,89,63,29.86,29.37,26,8,34,0.00
2013-11-28,36.9,30.5,22.8,26.0,20.0,18.0,92,67,48,30.48,29.86,14,4,26,0.00
2013-11-29,40.7,29.8,20.4,27.0,21.8,19.0,93,74,43,30.71,30.47,7,1,12,0.00
2013-11-30,41.3,32.2,23.0,31.0,24.9,16.0,83,74,67,30.70,30.34,9,2,13,0.00
2013-12-1,51.3,37.4,25.2,36.0,31.2,24.0,93,80,51,30.33,30.02,5,1,7,0.00
2013-12-2,47.5,34.3,25.8,38.0,30.7,24.0,93,87,65,30.02,29.86,4,0,6,0.00
2013-12-3,55.3,38.0,25.1,44.0,33.1,23.0,95,84,50,30.00,29.86,6,1,8,0.00
2013-12-4,57.4,44.6,27.9,49.0,40.6,26.0,94,86,70,30.10,30.00,6,1,8,0.00
2013-12-5,59.1,54.6,49.5,57.0,52.6,48.0,95,92,90,30.09,29.94,8,2,14,0.00
2013-12-6,62.2,50.8,38.9,60.0,48.6,37.0,95,92,91,30.11,29.89,10,4,15,0.00
2013-12-7,41.7,35.5,26.6,37.0,31.8,25.0,93,87,69,30.49,30.07,10,3,18,0.00
2013-12-8,32.3,28.1,22.9,31.0,25.2,21.0,94,89,72,30.58,30.29,6,2,13,0.00
2013-12-9,37.6,33.8,32.4,36.0,28.2,-99.9,95,90,93,30.27,30.00,9,-40,11,0.00
2013-12-10,34.3,31.3,25.7,33.0,29.8,24.0,95,94,91,30.18,29.88,8,1,9,0.00
2013-12-11,35.2,24.1,14.5,26.0,20.4,13.0,94,87,63,30.38,30.18,11,1,13,0.00
2013-12-12,28.6,19.5,11.1,21.0,14.6,10.0,94,83,49,30.37,30.21,8,1,14,0.00
2013-12-13,38.9,26.7,10.1,24.0,17.6,8.0,94,72,42,30.32,30.17,14,2,19,0.00
2013-12-14,52.0,35.4,23.7,50.0,31.3,22.0,94,85,69,30.38,29.62,11,3,18,0.00
2013-12-15,53.9,38.4,28.5,52.0,32.9,22.0,94,81,65,29.90,29.52,23,4,25,0.00
2013-12-16,34.2,28.9,20.0,26.0,16.2,8.0,91,61,37,30.22,29.89,12,3,18,0.00
2013-12-17,38.0,31.7,26.8,36.0,26.0,14.0,93,80,57,30.20,29.91,4,1,8,0.00
2013-12-18,39.1,28.9,21.4,26.0,19.5,-99.9,93,74,47,30.21,29.91,16,-8,19,0.00
2013-12-19,53.2,35.7,19.2,34.0,27.3,18.0,93,75,44,30.21,30.05,14,2,17,0.00
2013-12-20,55.5,48.6,37.0,51.0,39.4,32.0,91,72,52,30.11,29.99,10,3,16,0.00
2013-12-21,54.2,4.5,52.8,51.0,-87.3,-99.9,88,7,87,30.02,29.92,5,-915,11,0.00
2013-12-22,-200.0,0.0,200.0,-99.9,-99.9,-99.9,0,0,100,29.97,29.86,0,-999,0,0.00
2013-12-23,64.8,54.7,42.6,62.0,52.0,38.0,93,90,84,30.14,29.89,13,4,17,0.00
2013-12-24,42.6,36.0,26.8,38.0,24.2,13.0,83,63,50,30.37,30.10,14,4,19,0.00
2013-12-25,33.1,24.8,16.8,19.0,12.9,8.0,92,62,40,30.53,30.37,10,2,11,0.00
2013-12-26,42.4,27.0,15.8,27.0,21.3,14.0,93,81,47,30.40,30.18,10,1,16,0.00
2013-12-27,46.4,24.0,15.5,27.0,3.2,-99.9,93,66,34,30.40,30.28,10,-124,16,0.00
2013-12-28,21.6,4.3,19.5,20.0,-74.9,-99.9,93,20,92,30.30,30.10,0,-789,0,0.00
2013-12-29,-200.0,0.0,200.0,-99.9,-99.9,-99.9,0,0,100,30.09,29.42,0,-999,0,0.00
2013-12-30,47.2,30.8,27.4,42.0,4.8,-99.9,95,60,59,30.16,29.74,9,-198,18,0.00
2013-12-31,39.9,30.9,22.4,29.0,20.5,16.0,88,66,53,30.31,30.07,12,2,19,0.00
2014-1-1,43.5,29.7,17.6,29.0,22.7,16.0,92,77,44,30.41,30.18,10,2,14,0.00
2014-1-2,34.8,31.3,23.9,33.0,29.1,22.0,93,91,86,30.16,29.57,12,4,15,0.00